Time;durP1;ratioP1;P1;durP2;ratioP2;P2;SDS_P1;SDS_P2;PMS_P1;PMS_P2;Temp;Humidity;BMP_temperature;BMP_pressure;BME280_temperature;BME280_humidity;BME280_pressure;Samples;Min_cycle;Max_cycle;Signal;HPM_P1;HPM_P2
2021/07/31 00:01:55;;;;;;;;;;;17.00;99.90;;;;;;5095372;28;19959;-87
2021/07/31 00:04:20;;;;;;;;;;;17.00;99.90;;;;;;5093880;28;19962;-88
2021/07/31 00:06:46;;;;;;;;;;;17.00;99.90;;;;;;5095207;28;20382;-87
2021/07/31 00:09:11;;;;;;;;;;;17.00;99.90;;;;;;5095389;28;19957;-87
2021/07/31 00:11:37;;;;;;;;;;;17.00;99.90;;;;;;5085435;28;19983;-87
2021/07/31 00:14:02;;;;;;;;;;;17.00;99.90;;;;;;5077177;28;19908;-87
2021/07/31 00:16:28;;;;;;;;;;;17.00;99.90;;;;;;5076887;28;19954;-86
2021/07/31 00:18:54;;;;;;;;;;;17.00;99.90;;;;;;5076771;28;20275;-87
2021/07/31 00:21:20;;;;;;;;;;;17.00;99.90;;;;;;5076811;28;20283;-87
2021/07/31 00:23:45;;;;;;;;;;;17.00;99.90;;;;;;5076887;28;20007;-87
2021/07/31 00:26:11;;;;;;;;;;;17.00;99.90;;;;;;5094616;28;19943;-88
2021/07/31 00:28:36;;;;;;;;;;;17.10;99.90;;;;;;5076790;28;19912;-87
2021/07/31 00:31:02;;;;;;;;;;;17.10;99.90;;;;;;5076762;28;19919;-88
2021/07/31 00:33:27;;;;;;;;;;;17.20;99.90;;;;;;5094925;28;20454;-87
2021/07/31 00:35:53;;;;;;;;;;;17.20;99.90;;;;;;5076701;28;19908;-87
2021/07/31 00:38:18;;;;;;;;;;;17.30;99.90;;;;;;5076531;28;19909;-88
2021/07/31 00:40:44;;;;;;;;;;;17.30;99.90;;;;;;5075151;28;19951;-87
2021/07/31 00:43:09;;;;;;;;;;;17.30;99.90;;;;;;5068311;28;20295;-87
2021/07/31 00:45:35;;;;;;;;;;;17.40;99.90;;;;;;5093070;28;20003;-88
2021/07/31 00:48:01;;;;;;;;;;;17.40;99.90;;;;;;5094217;28;19916;-87
2021/07/31 00:50:28;;;;;;;;;;;17.40;99.90;;;;;;5094566;28;20286;-87
2021/07/31 00:52:54;;;;;;;;;;;17.40;99.90;;;;;;5094559;28;19908;-87
2021/07/31 00:55:20;;;;;;;;;;;17.40;99.90;;;;;;5076401;28;19974;-87
2021/07/31 00:57:47;;;;;;;;;;;17.40;99.90;;;;;;5076117;28;20014;-87
2021/07/31 01:00:12;;;;;;;;;;;17.50;99.90;;;;;;5075988;28;19934;-87
2021/07/31 01:02:38;;;;;;;;;;;17.50;99.90;;;;;;5092908;28;19909;-87
2021/07/31 01:05:04;;;;;;;;;;;17.50;99.90;;;;;;5092539;28;19908;-86
2021/07/31 01:07:30;;;;;;;;;;;17.40;99.90;;;;;;5075878;28;19908;-88
2021/07/31 01:10:02;;;;;;;;;;;17.50;99.90;;;;;;5092865;28;20137;-88
2021/07/31 01:12:28;;;;;;;;;;;17.50;99.90;;;;;;5061123;28;19916;-88
2021/07/31 01:14:53;;;;;;;;;;;17.50;99.90;;;;;;5055593;28;20363;-87
2021/07/31 01:17:18;;;;;;;;;;;17.50;99.90;;;;;;5055947;28;19909;-87
2021/07/31 01:19:44;;;;;;;;;;;17.50;99.90;;;;;;5055823;28;20034;-88
2021/07/31 01:22:10;;;;;;;;;;;17.50;99.90;;;;;;5073820;28;19991;-88
2021/07/31 01:24:35;;;;;;;;;;;17.50;99.90;;;;;;5056053;28;20016;-87
2021/07/31 01:27:01;;;;;;;;;;;17.50;99.90;;;;;;5055901;28;20264;-87
2021/07/31 01:29:26;;;;;;;;;;;17.50;99.90;;;;;;5055871;28;20382;-88
2021/07/31 01:31:52;;;;;;;;;;;17.40;99.90;;;;;;5055890;28;19962;-87
2021/07/31 01:34:17;;;;;;;;;;;17.30;99.90;;;;;;5055892;28;19952;-87
2021/07/31 01:36:43;;;;;;;;;;;17.30;99.90;;;;;;5055828;28;19954;-88
2021/07/31 01:39:08;;;;;;;;;;;17.30;99.90;;;;;;5055744;28;19919;-89
2021/07/31 01:41:34;;;;;;;;;;;17.20;99.90;;;;;;5055681;28;20007;-89
2021/07/31 01:44:00;;;;;;;;;;;17.10;99.90;;;;;;5055649;28;19923;-89
2021/07/31 01:46:25;;;;;;;;;;;17.10;99.90;;;;;;5056023;28;19908;-88
2021/07/31 01:49:05;;;;;;;;;;;17.10;99.90;;;;;;5055684;28;19908;-88
2021/07/31 01:51:30;;;;;;;;;;;17.00;99.90;;;;;;5055594;28;19948;-88
2021/07/31 01:53:58;;;;;;;;;;;17.00;99.90;;;;;;5055624;28;19948;-89
2021/07/31 01:56:23;;;;;;;;;;;16.90;99.90;;;;;;5055527;28;19916;-89
2021/07/31 01:58:49;;;;;;;;;;;16.90;99.90;;;;;;5055281;28;19912;-89
2021/07/31 02:01:15;;;;;;;;;;;16.80;99.90;;;;;;5055208;28;19912;-89
2021/07/31 02:03:40;;;;;;;;;;;16.90;99.90;;;;;;5055283;28;19915;-89
2021/07/31 02:06:06;;;;;;;;;;;16.80;99.90;;;;;;5073192;28;19916;-89
2021/07/31 02:08:31;;;;;;;;;;;16.80;99.90;;;;;;5055527;28;19909;-88
2021/07/31 02:10:57;;;;;;;;;;;16.80;99.90;;;;;;5055213;28;19915;-88
2021/07/31 02:13:22;;;;;;;;;;;16.70;99.90;;;;;;5055252;28;20007;-88
2021/07/31 02:15:48;;;;;;;;;;;16.70;99.90;;;;;;5055262;28;19916;-88
2021/07/31 02:18:14;;;;;;;;;;;16.70;99.90;;;;;;5055101;28;19966;-88
2021/07/31 02:20:39;;;;;;;;;;;16.60;99.90;;;;;;5055018;28;20260;-89
2021/07/31 02:23:05;;;;;;;;;;;16.60;99.90;;;;;;5055141;28;19912;-90
2021/07/31 02:25:31;;;;;;;;;;;16.60;99.90;;;;;;5055010;28;20383;-90
2021/07/31 02:27:56;;;;;;;;;;;16.50;99.90;;;;;;5072638;28;19973;-88
2021/07/31 02:30:22;;;;;;;;;;;16.40;99.90;;;;;;5055053;28;19909;-89
2021/07/31 02:32:48;;;;;;;;;;;16.30;99.90;;;;;;5054944;28;19909;-89
2021/07/31 02:35:13;;;;;;;;;;;16.30;99.90;;;;;;5072928;28;20394;-89
2021/07/31 02:37:39;;;;;;;;;;;16.20;99.90;;;;;;5054906;28;19915;-88
2021/07/31 02:40:05;;;;;;;;;;;16.10;99.90;;;;;;5055076;28;19920;-89
2021/07/31 02:42:31;;;;;;;;;;;16.10;99.90;;;;;;5054915;28;19927;-89
2021/07/31 02:44:56;;;;;;;;;;;16.00;99.90;;;;;;5054943;28;19908;-89
2021/07/31 02:47:22;;;;;;;;;;;15.90;99.90;;;;;;5055097;28;20058;-89
2021/07/31 02:49:47;;;;;;;;;;;15.90;99.90;;;;;;5054967;28;19931;-88
2021/07/31 02:52:12;;;;;;;;;;;15.80;99.90;;;;;;5055070;28;20374;-89
2021/07/31 02:54:38;;;;;;;;;;;15.70;99.90;;;;;;5054846;28;19909;-89
2021/07/31 02:57:03;;;;;;;;;;;15.70;99.90;;;;;;5054788;28;19916;-89
2021/07/31 02:59:29;;;;;;;;;;;15.60;99.90;;;;;;5072534;28;20014;-89
2021/07/31 03:01:54;;;;;;;;;;;15.60;99.90;;;;;;5054785;28;20367;-89
2021/07/31 03:04:20;;;;;;;;;;;15.50;99.90;;;;;;5054734;28;19915;-88
2021/07/31 03:06:45;;;;;;;;;;;15.40;99.90;;;;;;5054747;28;20363;-88
2021/07/31 03:09:11;;;;;;;;;;;15.40;99.90;;;;;;5054534;28;20275;-89
2021/07/31 03:11:36;;;;;;;;;;;15.40;99.90;;;;;;5054610;28;19908;-88
2021/07/31 03:14:02;;;;;;;;;;;15.30;99.90;;;;;;5054581;28;19915;-89
2021/07/31 03:16:27;;;;;;;;;;;15.30;99.90;;;;;;5054636;28;19954;-88
2021/07/31 03:18:53;;;;;;;;;;;15.20;99.90;;;;;;5072483;28;19913;-89
2021/07/31 03:21:18;;;;;;;;;;;15.20;99.90;;;;;;5072540;28;19916;-89
2021/07/31 03:23:44;;;;;;;;;;;15.10;99.90;;;;;;5054640;28;19916;-89
2021/07/31 03:26:09;;;;;;;;;;;15.00;99.90;;;;;;5055017;28;19915;-89
2021/07/31 03:28:35;;;;;;;;;;;15.00;99.90;;;;;;5054530;28;19912;-89
2021/07/31 03:31:00;;;;;;;;;;;14.90;99.90;;;;;;5055074;28;19909;-89
2021/07/31 03:33:26;;;;;;;;;;;14.90;99.90;;;;;;5072445;28;19915;-90
2021/07/31 03:35:52;;;;;;;;;;;14.80;99.90;;;;;;5054673;28;19999;-90
2021/07/31 03:38:18;;;;;;;;;;;14.80;99.90;;;;;;5074000;28;20379;-90
2021/07/31 03:40:43;;;;;;;;;;;14.70;99.90;;;;;;5075944;28;19918;-88
2021/07/31 03:43:09;;;;;;;;;;;14.70;99.90;;;;;;5058193;28;19916;-89
2021/07/31 03:45:34;;;;;;;;;;;14.50;99.90;;;;;;5058187;28;20015;-89
2021/07/31 03:48:00;;;;;;;;;;;14.50;99.90;;;;;;5075964;28;19908;-89
2021/07/31 03:50:25;;;;;;;;;;;14.40;99.90;;;;;;5057900;28;19908;-89
2021/07/31 03:52:51;;;;;;;;;;;14.40;99.90;;;;;;5058080;28;19955;-89
2021/07/31 03:55:17;;;;;;;;;;;14.30;99.90;;;;;;5057957;28;20318;-89
2021/07/31 03:57:42;;;;;;;;;;;14.20;99.90;;;;;;5057712;28;19908;-89
2021/07/31 04:00:08;;;;;;;;;;;14.20;99.90;;;;;;5057679;28;19913;-89
2021/07/31 04:02:33;;;;;;;;;;;14.20;99.90;;;;;;5075544;28;19908;-89
2021/07/31 04:04:59;;;;;;;;;;;14.10;99.90;;;;;;5057881;28;19908;-89
2021/07/31 04:07:25;;;;;;;;;;;14.10;99.90;;;;;;5057528;28;19912;-89
2021/07/31 04:09:51;;;;;;;;;;;14.10;99.90;;;;;;5075752;28;20256;-89
2021/07/31 04:12:16;;;;;;;;;;;14.10;99.90;;;;;;5057752;28;19908;-89
2021/07/31 04:14:42;;;;;;;;;;;14.00;99.90;;;;;;5057383;28;19909;-89
2021/07/31 04:17:07;;;;;;;;;;;13.90;99.90;;;;;;5057644;28;20283;-88
2021/07/31 04:19:33;;;;;;;;;;;13.70;99.90;;;;;;5057338;28;19916;-89
2021/07/31 04:21:58;;;;;;;;;;;13.70;99.90;;;;;;5057584;28;20003;-89
2021/07/31 04:24:24;;;;;;;;;;;13.60;99.90;;;;;;5057300;28;19909;-90
2021/07/31 04:26:50;;;;;;;;;;;13.50;99.90;;;;;;5057465;28;19912;-89
2021/07/31 04:29:16;;;;;;;;;;;13.40;99.90;;;;;;5057183;28;19909;-88
2021/07/31 04:31:41;;;;;;;;;;;13.40;99.90;;;;;;5075262;28;19909;-89
2021/07/31 04:34:07;;;;;;;;;;;13.40;99.90;;;;;;5057470;28;19931;-90
2021/07/31 04:36:32;;;;;;;;;;;13.40;99.90;;;;;;5056989;28;19919;-89
2021/07/31 04:38:58;;;;;;;;;;;13.50;99.90;;;;;;5057061;28;19912;-89
2021/07/31 04:41:24;;;;;;;;;;;13.50;99.90;;;;;;5056946;28;19916;-89
2021/07/31 04:43:49;;;;;;;;;;;13.60;99.90;;;;;;5057123;28;19916;-89
2021/07/31 04:46:15;;;;;;;;;;;13.60;99.90;;;;;;5056979;28;20367;-89
2021/07/31 04:48:40;;;;;;;;;;;13.70;99.90;;;;;;5057288;28;19908;-89
2021/07/31 04:51:06;;;;;;;;;;;13.70;99.90;;;;;;5056633;28;19915;-89
2021/07/31 04:53:31;;;;;;;;;;;13.80;99.90;;;;;;5057271;28;19913;-88
2021/07/31 04:55:57;;;;;;;;;;;13.80;99.90;;;;;;5057338;28;19908;-89
2021/07/31 04:58:23;;;;;;;;;;;13.90;99.90;;;;;;5056841;28;19947;-90
2021/07/31 05:00:49;;;;;;;;;;;14.00;99.90;;;;;;5075132;28;19920;-90
2021/07/31 05:03:15;;;;;;;;;;;14.00;99.90;;;;;;5056881;28;19954;-89
2021/07/31 05:05:44;;;;;;;;;;;14.10;99.90;;;;;;5057561;28;19916;-89
2021/07/31 05:08:10;;;;;;;;;;;14.10;99.90;;;;;;5056686;28;20371;-89
2021/07/31 05:10:43;;;;;;;;;;;14.20;99.90;;;;;;5056707;28;19915;-89
2021/07/31 05:13:08;;;;;;;;;;;14.30;99.90;;;;;;5074748;28;19970;-89
2021/07/31 05:15:35;;;;;;;;;;;14.40;99.90;;;;;;5056469;28;20329;-89
2021/07/31 05:18:00;;;;;;;;;;;14.50;99.90;;;;;;5056859;28;19931;-89
2021/07/31 05:20:26;;;;;;;;;;;14.60;99.90;;;;;;5056091;28;20287;-89
2021/07/31 05:22:53;;;;;;;;;;;14.80;99.90;;;;;;5056327;28;19912;-89
2021/07/31 05:25:19;;;;;;;;;;;15.00;99.90;;;;;;5056511;28;19915;-89
2021/07/31 05:27:44;;;;;;;;;;;15.30;99.90;;;;;;5056145;28;20003;-89
2021/07/31 05:30:10;;;;;;;;;;;15.60;99.90;;;;;;5055914;28;19962;-90
2021/07/31 05:32:35;;;;;;;;;;;15.80;99.90;;;;;;5056180;28;19909;-89
2021/07/31 05:35:01;;;;;;;;;;;16.00;99.90;;;;;;5056499;28;19908;-89
2021/07/31 05:37:27;;;;;;;;;;;16.10;99.90;;;;;;5056173;28;19909;-89
2021/07/31 05:39:52;;;;;;;;;;;16.10;99.90;;;;;;5055933;28;19912;-89
2021/07/31 05:42:18;;;;;;;;;;;16.30;99.90;;;;;;5073641;28;19915;-88
2021/07/31 05:44:43;;;;;;;;;;;16.40;99.90;;;;;;5055769;28;20283;-88
2021/07/31 05:47:09;;;;;;;;;;;16.50;99.90;;;;;;5073796;28;19909;-88
2021/07/31 05:49:34;;;;;;;;;;;16.50;99.90;;;;;;5056559;28;20360;-88
2021/07/31 05:52:00;;;;;;;;;;;16.50;99.90;;;;;;5058158;28;19955;-89
2021/07/31 05:54:26;;;;;;;;;;;16.60;99.90;;;;;;5057107;28;19908;-88
2021/07/31 05:56:51;;;;;;;;;;;16.60;99.90;;;;;;5055066;28;19975;-90
2021/07/31 05:59:17;;;;;;;;;;;16.80;99.90;;;;;;5055241;28;19912;-89
2021/07/31 06:01:42;;;;;;;;;;;16.80;99.90;;;;;;5055414;28;19915;-88
2021/07/31 06:04:08;;;;;;;;;;;16.80;99.90;;;;;;5055363;28;19959;-89
2021/07/31 06:06:33;;;;;;;;;;;16.70;99.90;;;;;;5055272;28;19909;-88
2021/07/31 06:08:59;;;;;;;;;;;16.70;99.90;;;;;;5055487;28;19909;-89
2021/07/31 06:11:25;;;;;;;;;;;16.60;99.90;;;;;;5055211;28;19912;-89
2021/07/31 06:13:51;;;;;;;;;;;16.70;99.90;;;;;;5055215;28;19909;-88
2021/07/31 06:16:16;;;;;;;;;;;16.70;99.90;;;;;;5055330;28;19915;-88
2021/07/31 06:18:42;;;;;;;;;;;17.00;99.90;;;;;;5055172;28;19909;-88
2021/07/31 06:21:15;;;;;;;;;;;17.40;99.90;;;;;;5073116;28;19944;-89
2021/07/31 06:23:40;;;;;;;;;;;18.00;99.90;;;;;;5055307;28;20395;-88
2021/07/31 06:26:07;;;;;;;;;;;18.40;99.90;;;;;;5055088;28;19908;-88
2021/07/31 06:28:33;;;;;;;;;;;18.50;99.90;;;;;;5055303;28;19909;-88
2021/07/31 06:30:58;;;;;;;;;;;18.40;99.90;;;;;;5055150;28;20474;-89
2021/07/31 06:33:24;;;;;;;;;;;18.40;99.90;;;;;;5055089;28;19913;-88
2021/07/31 06:35:49;;;;;;;;;;;18.20;99.90;;;;;;5073049;28;19944;-88
2021/07/31 06:38:15;;;;;;;;;;;18.10;99.90;;;;;;5055087;28;19913;-88
2021/07/31 06:40:43;;;;;;;;;;;17.90;99.90;;;;;;5054938;28;20071;-88
2021/07/31 06:43:09;;;;;;;;;;;17.80;99.90;;;;;;5067267;28;19991;-88
2021/07/31 06:45:34;;;;;;;;;;;17.80;99.90;;;;;;5075013;28;19963;-88
2021/07/31 06:48:00;;;;;;;;;;;17.80;99.90;;;;;;5091938;28;20343;-88
2021/07/31 06:50:25;;;;;;;;;;;17.70;99.90;;;;;;5074883;28;20279;-88
2021/07/31 06:52:51;;;;;;;;;;;17.70;99.90;;;;;;5092983;28;19908;-87
2021/07/31 06:55:17;;;;;;;;;;;17.70;99.90;;;;;;5091836;28;20052;-88
2021/07/31 06:57:42;;;;;;;;;;;17.70;99.90;;;;;;5091931;28;19969;-88
2021/07/31 07:00:08;;;;;;;;;;;18.00;99.90;;;;;;5091616;28;20008;-88
2021/07/31 07:02:33;;;;;;;;;;;18.70;99.90;;;;;;5092930;28;19908;-88
2021/07/31 07:04:59;;;;;;;;;;;19.70;99.90;;;;;;5091689;28;19943;-89
2021/07/31 07:07:24;;;;;;;;;;;20.80;99.90;;;;;;5092897;28;19912;-89
2021/07/31 07:09:50;;;;;;;;;;;21.70;99.90;;;;;;5092875;28;20267;-88
2021/07/31 07:12:15;;;;;;;;;;;22.30;99.90;;;;;;5091974;28;19912;-89
2021/07/31 07:14:41;;;;;;;;;;;22.90;99.90;;;;;;5095648;28;19908;-89
2021/07/31 07:17:07;;;;;;;;;;;23.30;99.90;;;;;;5095432;28;20385;-89
2021/07/31 07:19:32;;;;;;;;;;;23.70;99.90;;;;;;5096434;28;19986;-89
2021/07/31 07:21:58;;;;;;;;;;;23.70;99.90;;;;;;5096455;28;20336;-88
2021/07/31 07:24:24;;;;;;;;;;;23.90;99.90;;;;;;5078347;28;19915;-88
2021/07/31 07:26:49;;;;;;;;;;;24.10;99.30;;;;;;5095145;28;19908;-87
2021/07/31 07:29:15;;;;;;;;;;;24.20;98.90;;;;;;5095146;28;19912;-88
2021/07/31 07:31:40;;;;;;;;;;;24.30;98.20;;;;;;5096401;28;19908;-88
2021/07/31 07:34:05;;;;;;;;;;;24.20;98.60;;;;;;5095186;28;20067;-88
2021/07/31 07:36:31;;;;;;;;;;;24.30;98.60;;;;;;5078142;28;19916;-88
2021/07/31 07:38:56;;;;;;;;;;;24.70;97.90;;;;;;5078045;28;20433;-89
2021/07/31 07:41:22;;;;;;;;;;;24.40;97.70;;;;;;5087687;28;19915;-88
2021/07/31 07:43:47;;;;;;;;;;;24.30;97.40;;;;;;5075667;28;20420;-88
2021/07/31 07:46:14;;;;;;;;;;;24.60;97.80;;;;;;5094897;28;19940;-88
2021/07/31 07:48:40;;;;;;;;;;;25.00;97.80;;;;;;5077944;28;19952;-88
2021/07/31 07:51:06;;;;;;;;;;;25.10;95.80;;;;;;5077845;28;19914;-89
2021/07/31 07:53:31;;;;;;;;;;;25.00;94.90;;;;;;5111672;28;19912;-88
2021/07/31 07:55:57;;;;;;;;;;;24.80;95.20;;;;;;5096351;28;19959;-88
2021/07/31 07:58:22;;;;;;;;;;;24.20;95.00;;;;;;5094659;28;19909;-89
2021/07/31 08:00:48;;;;;;;;;;;23.90;96.10;;;;;;5094523;28;19912;-88
2021/07/31 08:03:14;;;;;;;;;;;23.70;94.80;;;;;;5094644;28;20367;-88
2021/07/31 08:05:39;;;;;;;;;;;23.70;96.00;;;;;;5077791;28;19908;-88
2021/07/31 08:08:05;;;;;;;;;;;24.00;95.90;;;;;;5077642;28;19961;-88
2021/07/31 08:10:31;;;;;;;;;;;24.30;94.90;;;;;;5077448;28;19908;-87
2021/07/31 08:12:56;;;;;;;;;;;24.50;95.50;;;;;;5077452;28;20355;-88
2021/07/31 08:15:22;;;;;;;;;;;24.50;94.40;;;;;;5077377;28;20285;-89
2021/07/31 08:17:47;;;;;;;;;;;24.60;94.90;;;;;;5094216;28;19947;-88
2021/07/31 08:20:13;;;;;;;;;;;24.60;94.80;;;;;;5094164;28;19919;-88
2021/07/31 08:22:38;;;;;;;;;;;24.90;94.70;;;;;;5094538;28;19908;-88
2021/07/31 08:25:04;;;;;;;;;;;25.00;93.80;;;;;;5093298;28;20394;-89
2021/07/31 08:27:30;;;;;;;;;;;24.90;93.50;;;;;;5103923;28;19908;-88
2021/07/31 08:29:55;;;;;;;;;;;24.90;94.70;;;;;;5108327;28;19912;-89
2021/07/31 08:32:21;;;;;;;;;;;25.00;93.10;;;;;;5089323;28;19912;-88
2021/07/31 08:34:46;;;;;;;;;;;25.00;93.80;;;;;;5090597;28;19908;-88
2021/07/31 08:37:28;;;;;;;;;;;25.10;94.30;;;;;;5095415;28;19979;-88
2021/07/31 08:39:54;;;;;;;;;;;25.20;93.60;;;;;;5076870;28;20003;-88
2021/07/31 08:42:19;;;;;;;;;;;24.70;94.20;;;;;;5081094;28;19959;-89
2021/07/31 08:45:01;;;;;;;;;;;24.50;94.50;;;;;;5057186;28;20367;-89
2021/07/31 08:47:28;;;;;;;;;;;24.50;94.10;;;;;;5057001;28;20363;-91
2021/07/31 08:49:54;;;;;;;;;;;24.50;93.90;;;;;;5056973;28;20283;-89
2021/07/31 08:52:20;;;;;;;;;;;24.40;94.00;;;;;;5075124;28;19908;-89
2021/07/31 08:54:45;;;;;;;;;;;24.30;94.10;;;;;;5074809;28;19912;-90
2021/07/31 08:57:11;;;;;;;;;;;24.50;94.40;;;;;;5056720;28;19909;-90
2021/07/31 08:59:36;;;;;;;;;;;24.50;93.70;;;;;;5056737;28;20058;-89
2021/07/31 09:02:02;;;;;;;;;;;24.70;93.50;;;;;;5056722;28;19999;-90
2021/07/31 09:04:28;;;;;;;;;;;25.10;96.00;;;;;;5056859;28;19908;-91
2021/07/31 09:06:53;;;;;;;;;;;25.70;93.40;;;;;;5057651;28;20025;-91
2021/07/31 09:09:26;;;;;;;;;;;26.00;91.90;;;;;;5057021;28;19915;-93
2021/07/31 09:12:02;;;;;;;;;;;26.20;91.10;;;;;;5056890;28;19959;-91
2021/07/31 09:14:29;;;;;;;;;;;26.20;90.80;;;;;;5056798;28;19909;-91
2021/07/31 09:16:59;;;;;;;;;;;26.00;92.70;;;;;;5056545;28;19910;-89
2021/07/31 09:19:26;;;;;;;;;;;25.80;91.10;;;;;;5074190;28;19920;-90
2021/07/31 09:22:00;;;;;;;;;;;26.00;91.40;;;;;;5056278;28;19909;-88
2021/07/31 09:24:26;;;;;;;;;;;25.70;89.60;;;;;;5056086;28;19971;-89
2021/07/31 09:26:52;;;;;;;;;;;25.50;90.20;;;;;;5055912;28;20359;-87
2021/07/31 09:29:19;;;;;;;;;;;25.40;89.10;;;;;;5056142;28;19909;-90
2021/07/31 09:31:45;;;;;;;;;;;25.50;91.30;;;;;;5055876;28;19961;-89
2021/07/31 09:34:11;;;;;;;;;;;25.70;90.50;;;;;;5056027;28;19909;-92
2021/07/31 09:36:37;;;;;;;;;;;25.90;90.50;;;;;;5055714;28;19908;-90
2021/07/31 09:39:04;;;;;;;;;;;26.20;88.00;;;;;;5055997;28;19913;-91
2021/07/31 09:41:34;;;;;;;;;;;26.20;89.80;;;;;;5055851;28;19950;-90
2021/07/31 09:44:04;;;;;;;;;;;26.10;88.30;;;;;;5055994;28;19916;-91
2021/07/31 09:46:30;;;;;;;;;;;26.10;90.70;;;;;;5055905;28;19927;-90
2021/07/31 09:49:00;;;;;;;;;;;26.40;88.50;;;;;;5055741;28;19909;-91
2021/07/31 09:51:33;;;;;;;;;;;26.50;87.30;;;;;;5055681;28;20007;-91
2021/07/31 09:54:00;;;;;;;;;;;26.70;86.40;;;;;;5055661;28;20333;-91
2021/07/31 09:56:26;;;;;;;;;;;26.80;86.70;;;;;;5055621;28;19974;-91
2021/07/31 09:58:52;;;;;;;;;;;26.90;90.20;;;;;;5073380;28;20347;-91
2021/07/31 10:01:17;;;;;;;;;;;27.10;88.10;;;;;;5055564;28;19952;-91
2021/07/31 10:03:43;;;;;;;;;;;27.30;88.10;;;;;;5055663;28;19916;-91
2021/07/31 10:06:09;;;;;;;;;;;27.40;84.10;;;;;;5073592;28;19951;-90
2021/07/31 10:08:35;;;;;;;;;;;27.30;83.80;;;;;;5055365;28;19909;-88
2021/07/31 10:11:01;;;;;;;;;;;26.70;82.10;;;;;;5058481;28;19942;-91
2021/07/31 10:13:28;;;;;;;;;;;26.30;81.10;;;;;;5092510;28;19908;-91
2021/07/31 10:15:53;;;;;;;;;;;26.00;81.10;;;;;;5093549;28;20023;-89
2021/07/31 10:18:22;;;;;;;;;;;25.90;81.60;;;;;;5075487;28;20390;-88
2021/07/31 10:20:48;;;;;;;;;;;26.00;84.00;;;;;;5075256;28;19941;-89
2021/07/31 10:23:34;;;;;;;;;;;26.10;84.40;;;;;;5075450;28;19908;-88
2021/07/31 10:26:06;;;;;;;;;;;26.30;85.60;;;;;;5075548;28;20432;-90
2021/07/31 10:28:31;;;;;;;;;;;26.40;82.60;;;;;;5075793;28;19908;-89
2021/07/31 10:31:16;;;;;;;;;;;26.50;83.40;;;;;;5092341;28;19916;-88
2021/07/31 10:33:42;;;;;;;;;;;26.50;83.30;;;;;;5093454;28;19908;-90
2021/07/31 10:36:26;;;;;;;;;;;26.60;82.40;;;;;;5075632;28;20281;-90
2021/07/31 10:38:51;;;;;;;;;;;26.90;83.90;;;;;;5075163;28;19909;-90
2021/07/31 10:41:36;;;;;;;;;;;27.20;83.20;;;;;;5075265;28;19915;-90
2021/07/31 10:44:09;;;;;;;;;;;27.60;82.20;;;;;;5075075;28;19916;-90
2021/07/31 10:46:34;;;;;;;;;;;28.10;82.80;;;;;;5075159;28;20713;-90
2021/07/31 10:49:18;;;;;;;;;;;28.40;79.30;;;;;;5095178;28;19914;-91
2021/07/31 10:51:44;;;;;;;;;;;28.60;79.40;;;;;;5079454;28;20256;-91
2021/07/31 10:54:10;;;;;;;;;;;28.80;79.40;;;;;;5097527;28;19916;-90
2021/07/31 10:56:52;;;;;;;;;;;29.00;80.80;;;;;;5096250;28;20301;-89
2021/07/31 10:59:19;;;;;;;;;;;29.20;79.20;;;;;;5097304;28;19912;-87
2021/07/31 11:01:45;;;;;;;;;;;28.90;77.30;;;;;;5078717;28;19939;-86
2021/07/31 11:04:30;;;;;;;;;;;28.50;79.90;;;;;;5078437;28;19954;-86
2021/07/31 11:07:10;;;;;;;;;;;28.70;79.70;;;;;;5078028;28;20424;-87
2021/07/31 11:09:35;;;;;;;;;;;28.80;80.30;;;;;;5078167;28;19919;-86
2021/07/31 11:12:20;;;;;;;;;;;28.70;84.90;;;;;;5075229;28;20502;-87
2021/07/31 11:15:04;;;;;;;;;;;28.80;80.30;;;;;;5076015;28;19920;-85
2021/07/31 11:17:30;;;;;;;;;;;28.80;72.00;;;;;;5057925;28;19947;-86
2021/07/31 11:19:55;;;;;;;;;;;28.90;77.40;;;;;;5057948;28;19970;-86
2021/07/31 11:22:21;;;;;;;;;;;28.50;71.50;;;;;;5075998;28;19909;-85
2021/07/31 11:24:46;;;;;;;;;;;27.70;74.50;;;;;;5076034;28;20393;-86
2021/07/31 11:27:12;;;;;;;;;;;27.90;79.30;;;;;;5075722;28;19962;-85
2021/07/31 11:29:37;;;;;;;;;;;28.10;80.00;;;;;;5075709;28;19909;-85
2021/07/31 11:32:14;;;;;;;;;;;28.30;83.50;;;;;;5057881;28;19908;-86
2021/07/31 11:34:40;;;;;;;;;;;28.90;79.80;;;;;;5057731;28;19962;-85
2021/07/31 11:37:09;;;;;;;;;;;29.20;80.70;;;;;;5057560;28;19912;-85
2021/07/31 11:39:35;;;;;;;;;;;28.90;78.70;;;;;;5058322;28;19912;-85
2021/07/31 11:42:01;;;;;;;;;;;28.80;76.90;;;;;;5087462;28;19916;-85
2021/07/31 11:44:28;;;;;;;;;;;29.10;76.10;;;;;;5077207;28;19985;-87
2021/07/31 11:46:54;;;;;;;;;;;29.20;78.20;;;;;;5077575;28;20374;-85
2021/07/31 11:49:38;;;;;;;;;;;28.70;75.40;;;;;;5077465;28;19908;-86
2021/07/31 11:52:05;;;;;;;;;;;28.90;79.00;;;;;;5077560;28;19943;-87
2021/07/31 11:54:31;;;;;;;;;;;29.20;73.60;;;;;;5095695;28;19912;-86
2021/07/31 11:56:57;;;;;;;;;;;29.00;74.30;;;;;;5077363;28;19908;-86
2021/07/31 11:59:30;;;;;;;;;;;28.30;71.20;;;;;;5076944;28;19919;-86
2021/07/31 12:01:56;;;;;;;;;;;27.60;76.30;;;;;;5077431;28;20015;-86
2021/07/31 12:04:41;;;;;;;;;;;27.10;76.30;;;;;;5077474;28;19944;-86
2021/07/31 12:07:07;;;;;;;;;;;26.90;76.40;;;;;;5077048;28;20007;-86
2021/07/31 12:09:33;;;;;;;;;;;27.20;81.10;;;;;;5077097;28;19955;-86
2021/07/31 12:11:58;;;;;;;;;;;27.80;81.30;;;;;;5087023;28;19951;-85
2021/07/31 12:14:27;;;;;;;;;;;28.50;71.40;;;;;;5094017;28;19908;-85
2021/07/31 12:16:53;;;;;;;;;;;28.40;75.50;;;;;;5077001;28;19908;-86
2021/07/31 12:19:18;;;;;;;;;;;28.50;73.10;;;;;;5076928;28;19920;-86
2021/07/31 12:21:44;;;;;;;;;;;28.40;72.30;;;;;;5076941;28;19912;-86
2021/07/31 12:24:17;;;;;;;;;;;28.50;74.30;;;;;;5093869;28;20383;-86
2021/07/31 12:26:50;;;;;;;;;;;28.30;70.80;;;;;;5094949;28;19998;-86
2021/07/31 12:29:31;;;;;;;;;;;28.10;76.70;;;;;;5094836;28;19912;-85
2021/07/31 12:32:15;;;;;;;;;;;28.20;72.80;;;;;;5076841;28;19999;-86
2021/07/31 12:34:41;;;;;;;;;;;28.80;71.30;;;;;;5076595;28;19915;-86
2021/07/31 12:37:06;;;;;;;;;;;29.00;69.40;;;;;;5093533;28;19908;-85
2021/07/31 12:39:31;;;;;;;;;;;28.10;72.70;;;;;;5093430;28;19916;-85
2021/07/31 12:41:57;;;;;;;;;;;27.80;72.00;;;;;;5091118;28;20510;-85
2021/07/31 12:44:23;;;;;;;;;;;28.10;75.00;;;;;;5056238;28;19962;-85
2021/07/31 12:46:48;;;;;;;;;;;28.40;75.30;;;;;;5056301;28;19912;-85
2021/07/31 12:49:13;;;;;;;;;;;28.80;74.80;;;;;;5056484;28;19909;-85
2021/07/31 12:51:39;;;;;;;;;;;28.00;70.00;;;;;;5056241;28;20329;-84
2021/07/31 12:54:04;;;;;;;;;;;27.70;72.00;;;;;;5056375;28;19912;-85
2021/07/31 12:56:30;;;;;;;;;;;27.50;72.30;;;;;;5074016;28;19956;-86
2021/07/31 12:58:55;;;;;;;;;;;27.20;71.00;;;;;;5056349;28;19916;-85
2021/07/31 13:01:21;;;;;;;;;;;26.90;72.30;;;;;;5056059;28;19951;-85
2021/07/31 13:03:48;;;;;;;;;;;27.10;73.90;;;;;;5056217;28;19969;-85
2021/07/31 13:06:13;;;;;;;;;;;27.00;75.20;;;;;;5056092;28;19908;-85
2021/07/31 13:08:39;;;;;;;;;;;27.10;77.00;;;;;;5056072;28;19918;-85
2021/07/31 13:11:04;;;;;;;;;;;27.50;78.60;;;;;;5066841;28;20286;-85
2021/07/31 13:13:29;;;;;;;;;;;28.00;74.80;;;;;;5080632;28;19914;-84
2021/07/31 13:15:55;;;;;;;;;;;28.20;74.70;;;;;;5094024;28;20389;-84
2021/07/31 13:18:21;;;;;;;;;;;28.50;73.80;;;;;;5093899;28;19915;-86
2021/07/31 13:20:47;;;;;;;;;;;28.40;76.10;;;;;;5094005;28;20375;-85
2021/07/31 13:23:12;;;;;;;;;;;28.70;75.60;;;;;;5075900;28;19943;-86
2021/07/31 13:25:38;;;;;;;;;;;28.90;75.50;;;;;;5075619;28;19914;-85
2021/07/31 13:28:06;;;;;;;;;;;28.80;70.40;;;;;;5075435;28;20279;-84
2021/07/31 13:30:32;;;;;;;;;;;28.50;71.80;;;;;;5093673;28;19958;-84
2021/07/31 13:32:58;;;;;;;;;;;28.20;71.30;;;;;;5075652;28;19947;-86
2021/07/31 13:35:24;;;;;;;;;;;28.20;73.90;;;;;;5093802;28;19957;-85
2021/07/31 13:37:50;;;;;;;;;;;28.20;71.10;;;;;;5093698;28;19914;-85
2021/07/31 13:40:17;;;;;;;;;;;28.60;75.40;;;;;;5075117;28;19916;-85
2021/07/31 13:42:43;;;;;;;;;;;28.70;72.60;;;;;;5093544;28;19995;-85
2021/07/31 13:45:08;;;;;;;;;;;28.50;69.40;;;;;;5075221;28;19960;-85
2021/07/31 13:47:36;;;;;;;;;;;28.10;69.70;;;;;;5092321;28;19912;-85
2021/07/31 13:50:01;;;;;;;;;;;27.80;73.20;;;;;;5093484;28;20408;-85
2021/07/31 13:52:27;;;;;;;;;;;27.90;71.70;;;;;;5075450;28;19988;-85
2021/07/31 13:54:52;;;;;;;;;;;28.00;72.70;;;;;;5075152;28;19958;-85
2021/07/31 13:57:18;;;;;;;;;;;28.00;75.70;;;;;;5091874;28;19908;-85
2021/07/31 13:59:43;;;;;;;;;;;28.10;71.70;;;;;;5093148;28;19916;-85
2021/07/31 14:02:10;;;;;;;;;;;27.80;73.10;;;;;;5075374;28;19951;-85
2021/07/31 14:04:36;;;;;;;;;;;27.80;75.40;;;;;;5094592;28;20019;-84
2021/07/31 14:07:01;;;;;;;;;;;27.60;72.40;;;;;;5093337;28;20294;-86
2021/07/31 14:09:27;;;;;;;;;;;27.70;73.90;;;;;;5092064;28;19961;-85
2021/07/31 14:11:52;;;;;;;;;;;27.90;71.40;;;;;;5085168;28;19915;-85
2021/07/31 14:14:18;;;;;;;;;;;28.30;74.90;;;;;;5075246;28;19911;-85